Time;durP1;ratioP1;P1;durP2;ratioP2;P2;SDS_P1;SDS_P2;PMS_P1;PMS_P2;Temp;Humidity;BMP_temperature;BMP_pressure;BME280_temperature;BME280_humidity;BME280_pressure;Samples;Min_cycle;Max_cycle;Signal;HPM_P1;HPM_P2
2023/09/01 00:00:03;;;;;;;12.40;8.63;;;;;;;12.50;100.00;101009.22;5008521;28;20032;-80
2023/09/01 00:02:28;;;;;;;13.60;9.52;;;;;;;12.54;100.00;101020.44;5011442;28;20029;-80
2023/09/01 00:04:55;;;;;;;14.25;9.73;;;;;;;12.58;100.00;101017.09;5007156;28;20028;-80
2023/09/01 00:07:20;;;;;;;15.18;9.57;;;;;;;12.62;100.00;101017.53;5010993;28;20411;-81
2023/09/01 00:09:45;;;;;;;15.13;9.25;;;;;;;12.62;100.00;101022.09;5011150;28;20057;-81
2023/09/01 00:12:11;;;;;;;15.48;9.30;;;;;;;12.56;100.00;101008.38;5012692;28;20042;-81
2023/09/01 00:14:36;;;;;;;13.73;9.55;;;;;;;12.59;100.00;101013.38;5010470;28;20471;-80
2023/09/01 00:17:02;;;;;;;11.63;8.52;;;;;;;12.61;100.00;101015.03;5010183;28;20047;-80
2023/09/01 00:19:27;;;;;;;15.50;9.07;;;;;;;12.64;100.00;101011.94;5012969;28;20036;-81
2023/09/01 00:21:53;;;;;;;11.13;8.30;;;;;;;12.63;100.00;101007.56;4998833;28;20036;-80
2023/09/01 00:24:18;;;;;;;13.30;9.15;;;;;;;12.53;100.00;101011.47;5012934;28;20041;-80
2023/09/01 00:26:44;;;;;;;13.50;9.55;;;;;;;12.52;100.00;101006.31;5021586;28;20029;-80
2023/09/01 00:29:09;;;;;;;12.00;8.60;;;;;;;12.46;100.00;101007.97;5027185;28;20383;-81
2023/09/01 00:31:36;;;;;;;12.43;8.93;;;;;;;12.34;100.00;101001.53;5013029;28;20121;-81
2023/09/01 00:34:02;;;;;;;13.52;9.32;;;;;;;12.20;100.00;100995.25;5010912;28;20038;-81
2023/09/01 00:36:28;;;;;;;14.73;9.77;;;;;;;12.11;100.00;101000.81;5011592;28;20045;-82
2023/09/01 00:38:54;;;;;;;11.48;9.50;;;;;;;12.09;100.00;101002.88;5011595;28;20026;-80
2023/09/01 00:41:19;;;;;;;14.38;9.75;;;;;;;12.20;100.00;101008.75;5008871;28;20556;-81
2023/09/01 00:43:44;;;;;;;11.32;9.05;;;;;;;12.28;100.00;101022.03;5009397;28;20030;-81
2023/09/01 00:46:10;;;;;;;13.20;8.98;;;;;;;12.27;100.00;101021.22;5010151;28;20044;-82
2023/09/01 00:48:37;;;;;;;15.32;9.40;;;;;;;12.19;100.00;101013.28;4978069;28;20094;-81
2023/09/01 00:51:02;;;;;;;12.90;8.00;;;;;;;12.21;100.00;101005.84;4993106;28;20037;-81
2023/09/01 00:53:28;;;;;;;11.95;8.57;;;;;;;12.11;100.00;101005.41;4992951;28;20077;-81
2023/09/01 00:55:56;;;;;;;12.63;8.60;;;;;;;12.12;100.00;101005.19;4993017;28;20466;-81
2023/09/01 00:58:21;;;;;;;10.70;8.68;;;;;;;12.04;100.00;100993.75;4976621;28;20030;-82
2023/09/01 01:00:47;;;;;;;14.32;8.45;;;;;;;12.06;100.00;100988.97;5009018;28;20030;-81
2023/09/01 01:03:12;;;;;;;12.48;8.90;;;;;;;12.11;100.00;100992.72;5010506;28;20021;-82
2023/09/01 01:05:43;;;;;;;11.77;8.43;;;;;;;12.13;100.00;100998.75;5035951;22;20524;-82
2023/09/01 01:08:27;;;;;;;12.57;8.35;;;;;;;12.15;100.00;100995.03;5048590;28;20033;-81
2023/09/01 01:11:13;;;;;;;12.93;8.52;;;;;;;11.95;100.00;100991.22;5071742;28;20496;-82
2023/09/01 01:13:40;;;;;;;12.90;8.43;;;;;;;11.78;100.00;101000.69;5051895;28;20130;-82
2023/09/01 01:16:06;;;;;;;11.68;7.90;;;;;;;11.72;100.00;100994.25;5054229;28;20024;-82
2023/09/01 01:18:32;;;;;;;13.18;8.20;;;;;;;11.63;100.00;100988.19;5046755;28;20036;-81
2023/09/01 01:21:06;;;;;;;11.27;8.75;;;;;;;11.52;100.00;100986.91;5052236;28;20027;-81
2023/09/01 01:23:31;;;;;;;14.60;9.32;;;;;;;11.45;100.00;100991.41;5037793;28;20036;-81
2023/09/01 01:25:57;;;;;;;11.75;8.55;;;;;;;11.50;100.00;100991.66;5055213;28;20412;-81
2023/09/01 01:28:22;;;;;;;11.43;8.65;;;;;;;11.62;100.00;100994.63;5065951;28;20073;-82
2023/09/01 01:30:54;;;;;;;11.65;8.77;;;;;;;11.62;100.00;100997.31;5084023;28;20016;-82
2023/09/01 01:33:47;;;;;;;14.18;8.35;;;;;;;11.53;100.00;100998.50;5039727;28;20043;-82
2023/09/01 01:36:28;;;;;;;11.18;8.48;;;;;;;11.43;100.00;100990.78;5039148;28;20032;-81
2023/09/01 01:39:05;;;;;;;12.05;8.10;;;;;;;11.35;100.00;100999.84;5077130;28;20046;-81
2023/09/01 01:41:38;;;;;;;13.02;8.98;;;;;;;11.28;100.00;100996.31;5049521;28;20025;-81
2023/09/01 01:44:05;;;;;;;15.27;9.18;;;;;;;11.22;100.00;100999.78;5066410;28;20032;-81
2023/09/01 01:46:30;;;;;;;13.55;9.02;;;;;;;11.19;100.00;100997.47;5063611;28;20036;-81
2023/09/01 01:48:55;;;;;;;12.63;8.23;;;;;;;11.15;100.00;100991.66;5048801;28;20037;-82
2023/09/01 01:51:21;;;;;;;15.45;8.70;;;;;;;11.10;100.00;100993.28;5065274;28;20039;-81
2023/09/01 01:53:46;;;;;;;12.48;8.20;;;;;;;11.04;100.00;101006.50;5073638;28;20043;-81
2023/09/01 01:56:13;;;;;;;13.07;8.93;;;;;;;11.00;100.00;101002.53;5079696;28;20025;-82
2023/09/01 01:58:39;;;;;;;16.05;9.35;;;;;;;10.96;100.00;101006.63;5084127;28;20025;-82
2023/09/01 02:01:06;;;;;;;15.98;9.13;;;;;;;10.92;100.00;101008.09;5080368;28;20028;-82
2023/09/01 02:03:31;;;;;;;11.70;8.50;;;;;;;10.86;100.00;101008.84;5064074;28;20081;-81
2023/09/01 02:05:57;;;;;;;13.82;8.40;;;;;;;10.82;100.00;101007.56;5077843;28;20048;-82
2023/09/01 02:08:22;;;;;;;12.45;8.68;;;;;;;10.78;100.00;101012.53;5091024;22;20434;-81
2023/09/01 02:10:48;;;;;;;14.80;9.77;;;;;;;10.77;100.00;101013.53;5057154;28;20169;-81
2023/09/01 02:13:13;;;;;;;16.52;9.32;;;;;;;10.73;100.00;101020.34;5064705;28;20028;-81
2023/09/01 02:15:39;;;;;;;14.65;9.15;;;;;;;10.71;100.00;101017.00;5047961;28;20025;-81
2023/09/01 02:18:08;;;;;;;12.70;9.15;;;;;;;10.68;100.00;101018.22;5028528;28;20040;-81
2023/09/01 02:20:36;;;;;;;15.70;9.73;;;;;;;10.63;100.00;101020.66;5048639;28;20029;-81
2023/09/01 02:23:02;;;;;;;14.32;9.82;;;;;;;10.59;100.00;101019.41;5071332;22;20053;-81
2023/09/01 02:25:27;;;;;;;11.80;9.07;;;;;;;10.53;100.00;101017.47;5060271;28;20028;-81
2023/09/01 02:27:52;;;;;;;13.75;9.65;;;;;;;10.45;100.00;101013.88;5067060;28;20484;-81
2023/09/01 02:30:18;;;;;;;13.18;9.55;;;;;;;10.38;100.00;101015.69;5057753;28;20021;-81
2023/09/01 02:32:43;;;;;;;14.88;9.65;;;;;;;10.32;100.00;101013.72;5069970;28;20048;-81
2023/09/01 02:35:09;;;;;;;13.77;9.70;;;;;;;10.29;100.00;101014.09;5070384;28;20039;-80
2023/09/01 02:37:35;;;;;;;15.38;11.50;;;;;;;10.29;100.00;101009.56;5072640;28;20552;-80
2023/09/01 02:40:01;;;;;;;17.05;11.57;;;;;;;10.32;100.00;101005.63;5073426;28;20500;-81
2023/09/01 02:42:26;;;;;;;17.58;10.75;;;;;;;10.34;100.00;101006.28;5073086;28;20033;-80
2023/09/01 02:44:52;;;;;;;15.48;10.93;;;;;;;10.34;100.00;101005.44;5063440;28;20033;-81
2023/09/01 02:47:17;;;;;;;18.02;11.43;;;;;;;10.36;100.00;101009.63;5066574;28;20076;-81
2023/09/01 02:49:43;;;;;;;18.02;11.43;;;;;;;10.37;100.00;101015.81;5070859;28;20029;-80
2023/09/01 02:52:08;;;;;;;18.63;11.75;;;;;;;10.36;100.00;101015.00;5070645;28;20097;-80
2023/09/01 02:54:33;;;;;;;18.27;11.57;;;;;;;10.38;100.00;101020.19;5073581;28;20040;-81
2023/09/01 02:56:59;;;;;;;17.08;11.13;;;;;;;10.41;100.00;101022.53;5071436;28;20588;-80
2023/09/01 02:59:24;;;;;;;14.95;10.45;;;;;;;10.42;100.00;101027.72;5072586;28;20058;-81
2023/09/01 03:01:50;;;;;;;17.90;11.70;;;;;;;10.44;100.00;101022.97;5083024;28;20047;-81
2023/09/01 03:04:15;;;;;;;16.38;10.98;;;;;;;10.48;100.00;101027.97;5068918;28;20029;-80
2023/09/01 03:06:41;;;;;;;15.73;11.25;;;;;;;10.47;100.00;101027.16;5068365;28;20040;-80
2023/09/01 03:09:09;;;;;;;16.55;11.38;;;;;;;10.43;100.00;101021.31;5064708;28;20033;-82
2023/09/01 03:11:37;;;;;;;17.67;11.02;;;;;;;10.39;100.00;101016.50;5070490;28;20055;-81
2023/09/01 03:14:04;;;;;;;17.25;11.63;;;;;;;10.34;100.00;101019.75;5071203;28;20033;-81
2023/09/01 03:16:30;;;;;;;16.35;10.70;;;;;;;10.29;100.00;101016.78;5070837;28;20119;-81
2023/09/01 03:18:59;;;;;;;17.55;11.55;;;;;;;10.24;100.00;101003.06;5071289;28;20029;-81
2023/09/01 03:21:26;;;;;;;17.65;11.70;;;;;;;10.20;100.00;101009.88;5070392;28;20449;-80
2023/09/01 03:23:52;;;;;;;17.95;11.48;;;;;;;10.15;100.00;101011.28;5062851;28;20041;-80
2023/09/01 03:26:18;;;;;;;16.02;11.35;;;;;;;10.10;100.00;101000.22;5065787;28;20032;-81
2023/09/01 03:28:44;;;;;;;16.10;11.07;;;;;;;10.07;100.00;101010.56;5069838;28;20545;-81
2023/09/01 03:31:10;;;;;;;14.98;11.20;;;;;;;10.02;100.00;101006.56;5075180;28;20049;-80
2023/09/01 03:33:36;;;;;;;14.90;10.60;;;;;;;10.02;100.00;101011.94;5068744;28;20534;-81
2023/09/01 03:36:07;;;;;;;15.57;11.15;;;;;;;10.01;100.00;101004.91;5068103;28;20039;-81
2023/09/01 03:38:33;;;;;;;16.90;11.38;;;;;;;10.02;100.00;100997.69;5068463;28;20028;-81
2023/09/01 03:41:01;;;;;;;14.88;10.82;;;;;;;10.01;100.00;100993.31;5069970;28;20369;-81
2023/09/01 03:43:26;;;;;;;17.13;11.32;;;;;;;10.00;100.00;100988.97;5070587;28;20029;-80
2023/09/01 03:45:52;;;;;;;17.60;11.73;;;;;;;10.00;100.00;100991.66;5070842;28;20126;-80
2023/09/01 03:48:17;;;;;;;17.45;10.85;;;;;;;10.02;100.00;100992.31;5071910;28;20031;-80
2023/09/01 03:50:42;;;;;;;21.98;12.48;;;;;;;10.03;100.00;100993.97;5065757;28;20391;-80
2023/09/01 03:53:08;;;;;;;18.40;12.43;;;;;;;10.04;100.00;100984.88;5068848;28;20028;-80
2023/09/01 03:55:34;;;;;;;16.42;12.20;;;;;;;10.03;100.00;100993.97;5064621;28;20052;-81
2023/09/01 03:58:00;;;;;;;17.30;11.55;;;;;;;10.01;100.00;100988.75;5054307;28;20029;-81
2023/09/01 04:00:26;;;;;;;20.45;12.02;;;;;;;10.05;100.00;100996.44;5068388;28;20032;-81
2023/09/01 04:02:51;;;;;;;18.60;12.23;;;;;;;10.03;100.00;100993.97;5069627;28;20025;-81
2023/09/01 04:05:16;;;;;;;21.02;12.50;;;;;;;10.05;100.00;100996.44;5069944;28;20511;-81
2023/09/01 04:07:42;;;;;;;22.38;12.88;;;;;;;10.07;100.00;100989.03;5070505;28;20032;-81
2023/09/01 04:10:07;;;;;;;18.75;12.80;;;;;;;10.11;100.00;100988.47;5066289;28;20025;-81
2023/09/01 04:12:34;;;;;;;18.75;12.60;;;;;;;10.14;100.00;100980.00;5069168;28;20572;-81
2023/09/01 04:14:59;;;;;;;19.65;12.52;;;;;;;10.14;100.00;100980.00;5070516;28;20075;-81
2023/09/01 04:17:26;;;;;;;19.92;13.05;;;;;;;10.20;100.00;100991.84;5070274;28;20076;-81
2023/09/01 04:19:52;;;;;;;21.42;12.45;;;;;;;10.24;100.00;100989.59;5070080;28;20500;-81
2023/09/01 04:22:17;;;;;;;16.27;11.93;;;;;;;10.26;100.00;100983.03;5070956;28;20037;-81
2023/09/01 04:24:43;;;;;;;19.45;11.88;;;;;;;10.32;100.00;100981.44;5070019;28;20389;-81
2023/09/01 04:27:08;;;;;;;18.05;11.95;;;;;;;10.35;100.00;100981.03;5069321;28;20028;-80
2023/09/01 04:29:35;;;;;;;16.08;11.10;;;;;;;10.37;100.00;100980.84;5057458;28;20028;-81
2023/09/01 04:32:01;;;;;;;17.45;11.80;;;;;;;10.38;100.00;100975.31;5070988;28;20127;-81
2023/09/01 04:34:26;;;;;;;16.23;11.15;;;;;;;10.43;100.00;100972.84;5069657;28;20106;-81
2023/09/01 04:36:51;;;;;;;16.83;11.38;;;;;;;10.45;100.00;100975.38;5065632;28;20032;-81
2023/09/01 04:39:17;;;;;;;14.65;10.98;;;;;;;10.51;100.00;100973.75;5055950;28;20044;-81
2023/09/01 04:41:45;;;;;;;15.90;11.27;;;;;;;10.57;100.00;100967.63;5069639;28;20451;-81
2023/09/01 04:44:10;;;;;;;14.38;11.07;;;;;;;10.61;100.00;100968.88;5070352;28;20023;-81
2023/09/01 04:46:36;;;;;;;17.83;10.82;;;;;;;10.66;100.00;100971.81;5069977;28;20052;-81
2023/09/01 04:49:04;;;;;;;16.48;10.88;;;;;;;10.69;100.00;100971.44;5050546;28;20025;-79
2023/09/01 04:51:30;;;;;;;16.48;10.55;;;;;;;10.75;100.00;100970.66;5068564;28;20051;-79
2023/09/01 04:53:56;;;;;;;15.13;10.60;;;;;;;10.80;100.00;100971.91;5072381;28;20477;-80
2023/09/01 04:56:21;;;;;;;14.18;10.05;;;;;;;10.81;100.00;100979.81;5060006;28;20036;-80
2023/09/01 04:58:46;;;;;;;12.35;9.77;;;;;;;10.89;100.00;100976.16;5065978;28;20028;-80
2023/09/01 05:01:12;;;;;;;14.07;9.52;;;;;;;10.96;100.00;100977.00;5064909;28;20036;-80
2023/09/01 05:03:37;;;;;;;14.25;9.65;;;;;;;11.01;100.00;100979.94;5065685;28;20028;-79
2023/09/01 05:06:04;;;;;;;13.43;9.63;;;;;;;11.03;100.00;100983.28;5082106;28;20020;-80
2023/09/01 05:08:29;;;;;;;14.88;9.88;;;;;;;11.08;100.00;100982.69;5085392;28;20043;-79
2023/09/01 05:10:55;;;;;;;15.48;9.50;;;;;;;11.14;100.00;100990.00;5074889;28;20364;-79
2023/09/01 05:13:20;;;;;;;12.30;9.02;;;;;;;11.20;100.00;100977.59;5071587;28;20487;-80
2023/09/01 05:15:47;;;;;;;12.10;8.85;;;;;;;11.28;100.00;100982.84;5071847;28;20028;-80
2023/09/01 05:18:13;;;;;;;13.50;9.55;;;;;;;11.35;100.00;100985.56;5071859;28;20031;-80
2023/09/01 05:20:38;;;;;;;10.93;8.50;;;;;;;11.46;100.00;100986.88;5065801;28;20024;-79
2023/09/01 05:23:03;;;;;;;16.17;8.80;;;;;;;11.54;100.00;100992.06;5093002;22;20016;-80
2023/09/01 05:25:52;;;;;;;14.10;8.95;;;;;;;11.62;100.00;100997.31;5067777;28;20024;-80
2023/09/01 05:28:18;;;;;;;15.18;8.70;;;;;;;11.70;100.00;100992.75;5062515;28;20114;-78
2023/09/01 05:30:47;;;;;;;13.80;7.72;;;;;;;11.79;100.00;101003.19;5070313;28;20581;-78
2023/09/01 05:33:12;;;;;;;11.13;8.05;;;;;;;11.90;100.00;101004.47;5066149;28;20029;-78
2023/09/01 05:35:37;;;;;;;11.85;7.85;;;;;;;11.93;100.00;101012.16;5064786;28;20037;-78
2023/09/01 05:38:03;;;;;;;12.60;7.85;;;;;;;11.97;100.00;101009.88;5071255;28;20028;-78
2023/09/01 05:40:28;;;;;;;11.55;7.90;;;;;;;12.00;100.00;101006.81;5067054;28;20031;-78
2023/09/01 05:42:57;;;;;;;10.73;7.88;;;;;;;12.05;100.00;101006.19;5067470;28;20036;-78
2023/09/01 05:45:25;;;;;;;12.80;8.70;;;;;;;12.08;100.00;101011.19;5068815;28;20047;-78
2023/09/01 05:47:51;;;;;;;13.02;8.55;;;;;;;12.12;100.00;101013.28;5060769;28;20027;-78
2023/09/01 05:50:18;;;;;;;10.65;7.78;;;;;;;12.20;100.00;101008.75;5068888;28;20021;-78
2023/09/01 05:52:43;;;;;;;13.43;8.00;;;;;;;12.25;100.00;101008.97;5056995;28;20039;-78
2023/09/01 05:55:09;;;;;;;11.00;8.18;;;;;;;12.21;100.00;101010.41;5066591;28;20025;-78
2023/09/01 05:57:34;;;;;;;14.00;8.25;;;;;;;12.21;100.00;101013.94;5068497;28;20111;-77
2023/09/01 06:00:00;;;;;;;12.25;8.73;;;;;;;12.26;100.00;101008.75;5069025;28;20036;-78
2023/09/01 06:02:25;;;;;;;12.13;8.40;;;;;;;12.28;100.00;101006.69;5058625;28;20020;-78
2023/09/01 06:04:50;;;;;;;11.15;9.02;;;;;;;12.31;100.00;101010.03;5067844;28;20400;-78
2023/09/01 06:07:19;;;;;;;12.40;8.07;;;;;;;12.40;100.00;101008.78;5069246;28;20031;-78
2023/09/01 06:09:44;;;;;;;13.75;8.07;;;;;;;12.39;100.00;101007.97;5068727;28;20033;-78
2023/09/01 06:12:09;;;;;;;11.18;7.93;;;;;;;12.47;100.00;101015.03;5069657;28;20062;-78
2023/09/01 06:14:35;;;;;;;13.45;8.63;;;;;;;12.54;100.00;101017.72;5069627;28;20036;-78
2023/09/01 06:17:00;;;;;;;13.70;8.88;;;;;;;12.66;100.00;101020.66;5066975;28;20401;-79
2023/09/01 06:19:26;;;;;;;13.90;8.40;;;;;;;12.86;100.00;101017.94;5071113;28;20358;-83
2023/09/01 06:21:51;;;;;;;11.98;7.88;;;;;;;13.03;100.00;101030.00;5067237;28;20035;-82
2023/09/01 06:24:17;;;;;;;11.77;8.07;;;;;;;13.18;100.00;101029.78;5067136;28;20048;-85
2023/09/01 06:26:42;;;;;;;14.07;8.45;;;;;;;13.32;100.00;101027.06;5071530;28;20393;-80
2023/09/01 06:29:08;;;;;;;12.98;7.80;;;;;;;13.40;100.00;101018.75;5068822;28;20082;-82
2023/09/01 06:31:35;;;;;;;11.57;8.23;;;;;;;13.46;100.00;101017.91;5062210;28;20033;-81
2023/09/01 06:34:01;;;;;;;14.43;8.43;;;;;;;13.47;100.00;101019.56;5067125;28;20025;-81
2023/09/01 06:36:26;;;;;;;12.90;7.80;;;;;;;13.57;100.00;101015.59;5067811;28;20410;-79
2023/09/01 06:38:51;;;;;;;12.05;7.65;;;;;;;13.71;99.57;101011.78;5067323;28;20112;-79
2023/09/01 06:41:17;;;;;;;10.23;8.05;;;;;;;13.86;98.71;101025.03;5066111;28;20040;-78
2023/09/01 06:43:42;;;;;;;11.10;7.82;;;;;;;14.11;98.02;101018.91;5067205;28;20075;-78
2023/09/01 06:46:08;;;;;;;12.15;7.18;;;;;;;14.58;96.62;101017.75;5068373;28;20035;-78
2023/09/01 06:48:35;;;;;;;11.68;7.25;;;;;;;14.92;92.98;101013.78;5066015;28;20024;-77
2023/09/01 06:51:00;;;;;;;11.70;7.50;;;;;;;15.31;91.90;101019.03;5066212;28;20029;-78
2023/09/01 06:53:26;;;;;;;10.35;6.90;;;;;;;15.53;88.80;101024.84;5061482;28;20054;-79
2023/09/01 06:55:51;;;;;;;10.35;6.55;;;;;;;15.67;86.58;101025.53;5066569;28;20048;-78
2023/09/01 06:58:17;;;;;;;9.68;7.13;;;;;;;15.33;88.55;101029.69;5067637;28;20032;-77
2023/09/01 07:00:42;;;;;;;11.45;7.15;;;;;;;15.43;88.32;101024.56;5068737;28;20024;-76
2023/09/01 07:03:08;;;;;;;10.45;6.82;;;;;;;15.34;90.54;101023.19;5064191;28;20077;-77
2023/09/01 07:05:34;;;;;;;10.38;6.97;;;;;;;15.21;88.67;101016.84;5066488;28;20029;-76
2023/09/01 07:07:59;;;;;;;9.77;7.13;;;;;;;15.37;89.74;101020.00;5069412;28;20024;-79
2023/09/01 07:10:25;;;;;;;8.85;6.78;;;;;;;15.42;88.03;101014.75;5092475;22;20585;-81
2023/09/01 07:12:50;;;;;;;11.25;6.82;;;;;;;15.58;87.41;101018.75;5065539;28;20041;-80
2023/09/01 07:15:15;;;;;;;7.80;6.82;;;;;;;15.45;88.93;101022.44;5068799;28;20032;-81
2023/09/01 07:17:46;;;;;;;10.55;7.20;;;;;;;15.45;88.88;101017.03;5065650;28;20113;-79
2023/09/01 07:20:12;;;;;;;8.57;6.82;;;;;;;15.88;87.54;101010.72;5066320;28;20379;-80
2023/09/01 07:22:37;;;;;;;12.48;6.70;;;;;;;16.58;85.27;101013.88;5073067;28;20033;-80
2023/09/01 07:25:04;;;;;;;10.95;6.40;;;;;;;17.62;78.74;101024.44;5047556;28;20032;-78
2023/09/01 07:27:29;;;;;;;11.35;6.53;;;;;;;18.27;74.83;101034.19;5063782;28;20036;-80
2023/09/01 07:29:55;;;;;;;9.45;6.00;;;;;;;18.57;74.83;101032.28;5071814;28;20051;-78
2023/09/01 07:32:33;;;;;;;9.35;6.25;;;;;;;17.96;74.50;101025.41;5066067;28;20038;-85
2023/09/01 07:34:59;;;;;;;8.88;5.93;;;;;;;18.01;76.36;101030.16;5065664;28;20041;-77
2023/09/01 07:37:24;;;;;;;9.85;5.85;;;;;;;17.73;76.26;101026.31;5060511;28;20119;-78
2023/09/01 07:39:51;;;;;;;10.43;6.32;;;;;;;17.42;77.59;101026.50;5050435;28;20108;-78
2023/09/01 07:42:23;;;;;;;10.70;6.05;;;;;;;17.83;77.17;101023.78;5068603;28;20116;-81
2023/09/01 07:44:48;;;;;;;10.00;6.50;;;;;;;17.71;77.23;101029.25;5061680;28;20070;-79
2023/09/01 07:47:14;;;;;;;10.43;6.63;;;;;;;17.73;77.47;101026.31;5067183;28;20152;-79
2023/09/01 07:49:39;;;;;;;9.45;6.68;;;;;;;17.75;75.89;101020.63;5071546;28;20397;-80
2023/09/01 07:52:04;;;;;;;9.52;6.00;;;;;;;17.73;76.40;101016.25;5067500;28;20025;-79
2023/09/01 07:54:31;;;;;;;8.88;5.90;;;;;;;17.73;76.98;101016.25;5061621;28;20028;-79
2023/09/01 07:56:56;;;;;;;11.00;6.60;;;;;;;17.81;76.36;101014.22;5070237;28;20048;-79
2023/09/01 07:59:22;;;;;;;10.40;5.93;;;;;;;18.07;76.00;101010.13;5053444;28;20052;-79
2023/09/01 08:04:12;;;;;;;10.38;6.53;;;;;;;17.54;77.60;101021.03;5074907;22;20071;-78
2023/09/01 08:06:38;;;;;;;9.77;6.03;;;;;;;17.33;79.02;101013.47;5051657;28;20024;-79
2023/09/01 08:09:09;;;;;;;11.85;6.70;;;;;;;16.99;80.18;101019.50;5051684;28;20028;-78
2023/09/01 08:11:42;;;;;;;7.93;6.40;;;;;;;16.97;80.83;101021.63;5058599;28;20035;-78
2023/09/01 08:14:23;;;;;;;11.68;6.82;;;;;;;16.67;82.12;101012.50;5060495;28;20453;-78
2023/09/01 08:16:48;;;;;;;9.13;6.38;;;;;;;17.07;80.37;101021.91;5055395;28;20074;-78
2023/09/01 08:19:14;;;;;;;11.85;6.65;;;;;;;17.19;80.13;101023.78;5048161;28;20045;-79
2023/09/01 08:21:51;;;;;;;12.80;6.20;;;;;;;17.05;80.03;101029.47;5062297;28;20155;-78
2023/09/01 08:24:20;;;;;;;7.65;5.85;;;;;;;17.29;79.68;101032.19;5059603;28;20021;-78
2023/09/01 08:26:45;;;;;;;8.50;6.38;;;;;;;17.36;79.68;101030.16;5037771;28;20089;-79
2023/09/01 08:29:14;;;;;;;8.88;6.22;;;;;;;17.89;77.26;101022.00;5032684;28;20032;-78
2023/09/01 08:31:55;;;;;;;9.23;6.15;;;;;;;18.12;76.85;101026.56;5038249;28;20028;-78
2023/09/01 08:34:29;;;;;;;9.40;6.03;;;;;;;17.91;76.38;101025.31;5047563;28;20041;-78
2023/09/01 08:37:01;;;;;;;10.85;6.00;;;;;;;18.02;76.04;101024.47;5042910;28;20549;-79
2023/09/01 08:39:29;;;;;;;9.13;6.05;;;;;;;18.38;75.24;101031.66;5049890;28;20060;-78
2023/09/01 08:41:54;;;;;;;9.75;5.80;;;;;;;18.16;75.15;101026.91;5050318;28;20035;-79
2023/09/01 08:44:23;;;;;;;8.50;5.82;;;;;;;18.05;76.81;101030.50;5043176;28;20037;-78
2023/09/01 08:46:55;;;;;;;9.07;5.68;;;;;;;17.99;76.42;101027.69;5044192;28;20040;-78
2023/09/01 08:49:21;;;;;;;9.73;5.50;;;;;;;18.07;77.11;101029.19;5041275;28;20468;-78
2023/09/01 08:51:47;;;;;;;7.88;5.80;;;;;;;18.17;76.45;101029.38;5040846;28;20028;-78
2023/09/01 08:54:15;;;;;;;7.32;5.60;;;;;;;17.98;77.33;101042.38;5050728;28;20560;-78
2023/09/01 08:56:41;;;;;;;8.70;6.05;;;;;;;17.65;78.03;101038.38;5047773;28;20416;-78
2023/09/01 08:59:06;;;;;;;8.05;5.18;;;;;;;17.64;78.54;101036.75;5015229;28;20021;-78
2023/09/01 09:01:37;;;;;;;10.00;6.38;;;;;;;17.69;79.81;101034.13;5039808;28;20029;-78
2023/09/01 09:04:03;;;;;;;8.15;5.60;;;;;;;17.59;79.02;101031.19;5039087;28;20419;-78
2023/09/01 09:06:35;;;;;;;8.95;5.97;;;;;;;17.78;79.30;101041.94;5046862;28;20033;-78
2023/09/01 09:09:11;;;;;;;9.48;6.10;;;;;;;17.79;78.41;101038.13;5050236;28;20036;-78
2023/09/01 09:11:38;;;;;;;8.60;6.18;;;;;;;17.95;78.14;101047.44;5048463;28;20049;-78
2023/09/01 09:14:04;;;;;;;7.78;5.50;;;;;;;17.97;77.64;101040.69;5051133;28;20025;-78
2023/09/01 09:16:30;;;;;;;8.23;6.22;;;;;;;17.91;78.17;101040.84;5049241;28;20049;-78
2023/09/01 09:18:55;;;;;;;11.70;6.38;;;;;;;17.88;77.99;101047.56;5049033;28;20078;-78
2023/09/01 09:21:21;;;;;;;8.50;6.30;;;;;;;17.98;77.33;101050.56;5059303;28;20060;-78
2023/09/01 09:23:46;;;;;;;8.07;6.10;;;;;;;18.05;77.79;101052.28;5051125;28;20029;-78
2023/09/01 09:26:12;;;;;;;10.68;7.00;;;;;;;17.79;78.61;101062.66;5050002;28;20984;-78
2023/09/01 09:28:37;;;;;;;9.35;7.05;;;;;;;17.95;78.28;101053.72;5041766;28;20084;-78
2023/09/01 09:31:03;;;;;;;8.25;6.38;;;;;;;17.64;80.10;101052.25;5046251;28;20047;-78
2023/09/01 09:33:29;;;;;;;9.85;6.47;;;;;;;17.57;80.01;101052.38;5042733;28;20029;-78
2023/09/01 09:35:55;;;;;;;10.32;6.65;;;;;;;17.40;81.31;101058.56;5050194;28;20044;-78
2023/09/01 09:38:21;;;;;;;11.10;6.80;;;;;;;17.41;81.48;101056.66;5051091;28;20029;-79
2023/09/01 09:40:57;;;;;;;8.77;6.18;;;;;;;17.58;80.23;101067.66;5039515;28;20033;-78
2023/09/01 09:43:22;;;;;;;8.45;6.25;;;;;;;17.52;80.85;101065.88;5042686;28;20037;-78
2023/09/01 09:45:53;;;;;;;8.93;5.70;;;;;;;17.63;80.65;101061.47;5051099;28;20025;-79
2023/09/01 09:48:18;;;;;;;6.65;5.80;;;;;;;17.70;80.34;101062.19;5050268;28;20033;-78
2023/09/01 09:50:44;;;;;;;8.35;5.82;;;;;;;17.72;79.93;101063.59;5051108;28;20159;-78
2023/09/01 09:53:16;;;;;;;11.88;5.60;;;;;;;17.65;79.67;101064.78;5051428;28;20036;-78
2023/09/01 09:55:45;;;;;;;6.40;5.60;;;;;;;17.35;81.34;101066.59;5037634;28;20056;-79
2023/09/01 09:58:10;;;;;;;10.68;5.57;;;;;;;17.40;81.74;101061.28;5052802;28;20032;-79
2023/09/01 10:00:42;;;;;;;6.85;5.57;;;;;;;17.50;81.18;101065.28;5044150;28;20409;-79
2023/09/01 10:03:10;;;;;;;7.55;6.10;;;;;;;17.49;81.96;101066.34;5048125;28;20504;-78
2023/09/01 10:05:36;;;;;;;8.52;7.47;;;;;;;17.19;83.06;101067.31;5053858;28;20412;-78
2023/09/01 10:08:05;;;;;;;8.80;6.30;;;;;;;17.11;84.24;101071.19;5048294;28;20027;-78
2023/09/01 10:10:33;;;;;;;9.85;6.65;;;;;;;17.15;83.75;101069.69;5054253;28;20033;-78
2023/09/01 10:13:04;;;;;;;8.23;6.30;;;;;;;17.35;83.06;101074.75;5038937;28;20029;-78
2023/09/01 10:15:31;;;;;;;10.70;6.70;;;;;;;17.21;83.46;101070.63;5056507;28;20029;-79
2023/09/01 10:17:58;;;;;;;7.97;7.18;;;;;;;16.99;84.83;101063.03;5078101;22;20060;-78
2023/09/01 10:20:27;;;;;;;8.20;7.40;;;;;;;16.93;84.91;101066.69;5065900;28;20078;-78
2023/09/01 10:22:52;;;;;;;8.05;6.70;;;;;;;16.94;84.98;101076.50;5058312;28;20044;-79
2023/09/01 10:25:19;;;;;;;8.23;6.70;;;;;;;16.96;85.44;101075.22;5054448;28;20470;-78
2023/09/01 10:28:06;;;;;;;7.13;6.40;;;;;;;16.89;86.34;101069.00;5057695;28;20032;-79
2023/09/01 10:30:39;;;;;;;7.75;6.40;;;;;;;16.85;85.62;101067.84;5069816;28;20031;-79
2023/09/01 10:33:10;;;;;;;7.57;6.78;;;;;;;16.78;86.34;101067.94;5055947;28;20044;-79
2023/09/01 10:35:36;;;;;;;8.13;7.32;;;;;;;16.67;87.14;101066.88;5062706;28;20397;-78
2023/09/01 10:38:14;;;;;;;8.93;6.50;;;;;;;16.83;86.90;101064.53;5070751;28;20044;-78
2023/09/01 10:41:00;;;;;;;8.02;7.22;;;;;;;16.89;87.50;101068.19;5068515;28;20074;-78
2023/09/01 10:43:31;;;;;;;8.03;6.60;;;;;;;16.93;86.99;101069.41;5069286;28;20032;-79
2023/09/01 10:46:15;;;;;;;9.88;7.15;;;;;;;16.78;86.11;101062.50;5050519;28;20299;-78
2023/09/01 10:49:00;;;;;;;9.07;6.88;;;;;;;16.92;85.94;101065.00;5062282;28;20044;-77
2023/09/01 10:54:01;;;;;;;8.23;7.23;;;;;;;17.05;85.67;101062.09;5305252;22;20050;-78
2023/09/01 10:56:29;;;;;;;8.77;6.93;;;;;;;17.06;85.52;101057.47;5114839;28;20301;-78
2023/09/01 10:58:56;;;;;;;8.10;7.20;;;;;;;16.94;86.76;101060.19;5108072;28;20096;-78
2023/09/01 11:01:35;;;;;;;8.30;7.50;;;;;;;17.07;85.76;101056.41;5104799;28;20028;-78
2023/09/01 11:04:15;;;;;;;8.90;8.00;;;;;;;17.07;85.69;101059.97;5109319;28;20478;-77
2023/09/01 11:06:56;;;;;;;10.50;9.13;;;;;;;16.98;85.98;101061.38;5109738;28;20484;-77
2023/09/01 11:09:22;;;;;;;10.82;9.27;;;;;;;16.98;85.74;101055.94;5099088;28;20028;-77
2023/09/01 11:11:51;;;;;;;12.07;9.00;;;;;;;16.90;86.42;101058.97;5095303;28;20119;-78
2023/09/01 11:14:20;;;;;;;10.45;9.30;;;;;;;16.80;88.59;101062.28;5101641;28;20081;-77
2023/09/01 11:16:46;;;;;;;10.93;9.93;;;;;;;16.69;87.82;101058.47;5107939;28;20035;-77